Time;durP1;ratioP1;P1;durP2;ratioP2;P2;SDS_P1;SDS_P2;PMS_P1;PMS_P2;Temp;Humidity;BMP_temperature;BMP_pressure;BME280_temperature;BME280_humidity;BME280_pressure;Samples;Min_cycle;Max_cycle;Signal;HPM_P1;HPM_P2
2023/02/20 00:01:57;;;;;;;5.77;2.80;;;1.80;99.90;;;1.57;68.92;100321.94;5016680;28;20203;-69
2023/02/20 00:04:25;;;;;;;7.83;2.17;;;1.80;99.90;;;1.57;68.63;100327.88;5010161;28;20203;-70
2023/02/20 00:06:54;;;;;;;4.50;2.23;;;1.80;99.90;;;1.55;69.11;100319.38;5016381;28;20214;-70
2023/02/20 00:09:22;;;;;;;6.67;2.00;;;1.80;99.90;;;1.56;68.92;100335.47;5008131;28;20251;-70
2023/02/20 00:11:52;;;;;;;4.73;2.20;;;1.80;99.90;;;1.55;68.81;100315.97;5013104;28;20648;-69
2023/02/20 00:14:22;;;;;;;3.90;1.87;;;1.80;99.90;;;1.56;69.18;100316.00;5014908;28;20203;-69
2023/02/20 00:16:51;;;;;;;9.50;2.30;;;1.80;99.90;;;1.55;68.80;100309.22;5020649;28;20529;-71
2023/02/20 00:19:19;;;;;;;5.67;2.13;;;1.80;99.90;;;1.58;67.90;100303.34;5014891;28;20220;-69
2023/02/20 00:21:49;;;;;;;7.20;1.77;;;1.80;99.90;;;1.58;68.18;100303.34;5015752;28;20261;-69
2023/02/20 00:24:18;;;;;;;5.57;2.33;;;1.80;99.90;;;1.60;68.07;100294.09;5012654;28;20244;-68
2023/02/20 00:26:47;;;;;;;5.07;2.13;;;1.80;99.90;;;1.60;67.66;100284.78;5004726;28;20208;-69
2023/02/20 00:29:19;;;;;;;5.43;2.70;;;1.90;99.90;;;1.64;67.95;100304.38;5013621;28;20231;-71
2023/02/20 00:31:52;;;;;;;5.00;2.27;;;1.90;99.90;;;1.66;67.35;100304.44;5015475;28;20269;-71
2023/02/20 00:34:26;;;;;;;6.17;2.17;;;1.90;99.90;;;1.66;67.35;100301.91;5012602;28;20203;-71
2023/02/20 00:36:54;;;;;;;7.63;2.30;;;1.90;99.90;;;1.65;67.61;100312.84;5009786;28;20651;-68
2023/02/20 00:39:23;;;;;;;8.03;2.33;;;1.90;99.90;;;1.65;66.93;100295.06;5012749;28;20622;-71
2023/02/20 00:41:52;;;;;;;4.17;2.13;;;1.90;99.90;;;1.66;66.73;100301.91;5010447;28;20235;-69
2023/02/20 00:44:22;;;;;;;4.03;1.90;;;1.90;99.90;;;1.65;66.48;100303.56;5006127;28;20258;-70
2023/02/20 00:46:50;;;;;;;4.70;2.13;;;1.90;99.90;;;1.65;66.18;100302.69;5014102;28;20261;-68
2023/02/20 00:49:19;;;;;;;4.93;2.13;;;1.90;99.90;;;1.65;66.79;100306.09;5010818;28;20574;-70
2023/02/20 00:51:47;;;;;;;4.80;1.87;;;1.90;99.90;;;1.67;66.20;100308.69;5016935;28;20215;-71
2023/02/20 00:54:16;;;;;;;5.90;2.33;;;1.90;99.90;;;1.67;66.51;100323.94;5012203;28;20621;-71
2023/02/20 00:56:45;;;;;;;6.53;2.23;;;1.90;99.90;;;1.65;66.25;100306.09;5012043;28;20207;-71
2023/02/20 00:59:13;;;;;;;4.83;2.47;;;1.90;99.90;;;1.63;66.32;100301.81;5006644;28;20615;-69
2023/02/20 01:01:43;;;;;;;6.37;2.27;;;1.90;99.90;;;1.64;66.14;100309.47;5014841;28;20242;-70
2023/02/20 01:04:12;;;;;;;7.27;2.63;;;1.90;99.90;;;1.64;66.63;100309.47;5015168;28;20228;-71
2023/02/20 01:06:41;;;;;;;6.20;2.37;;;1.90;99.90;;;1.62;66.06;100300.06;5012388;28;20207;-69
2023/02/20 01:09:09;;;;;;;6.67;2.47;;;1.90;99.90;;;1.63;66.58;100297.59;5007427;28;20593;-68
2023/02/20 01:11:38;;;;;;;4.30;2.10;;;1.80;99.90;;;1.63;66.33;100302.66;5002495;28;20208;-70
2023/02/20 01:14:06;;;;;;;5.43;2.40;;;1.90;99.90;;;1.61;66.11;100304.28;5015455;28;20200;-70
2023/02/20 01:16:35;;;;;;;7.33;2.70;;;1.80;99.90;;;1.59;66.40;100300.84;5009529;28;20295;-71
2023/02/20 01:19:05;;;;;;;5.90;2.77;;;1.90;99.90;;;1.59;66.15;100307.63;5015404;28;20242;-69
2023/02/20 01:21:33;;;;;;;6.63;2.50;;;1.80;99.90;;;1.57;66.05;100301.63;5016226;28;20204;-70
2023/02/20 01:24:02;;;;;;;4.63;2.57;;;1.80;99.90;;;1.56;66.12;100302.44;5017914;28;20211;-68
2023/02/20 01:26:31;;;;;;;7.93;3.00;;;1.80;99.90;;;1.55;66.39;100295.66;5016315;28;20254;-71
2023/02/20 01:28:59;;;;;;;5.47;2.70;;;1.80;99.90;;;1.54;66.27;100287.16;5007608;28;20222;-69
2023/02/20 01:31:28;;;;;;;5.47;2.30;;;1.80;99.90;;;1.55;66.90;100278.75;5019502;28;20207;-68
2023/02/20 01:33:56;;;;;;;10.63;3.10;;;1.80;99.90;;;1.55;66.71;100285.50;5017153;28;20857;-70
2023/02/20 01:36:26;;;;;;;6.37;2.83;;;1.80;99.90;;;1.56;66.18;100277.91;5015705;28;20225;-71
2023/02/20 01:38:55;;;;;;;5.33;2.77;;;1.80;99.90;;;1.56;66.36;100279.59;5015508;28;20249;-69
2023/02/20 01:41:25;;;;;;;7.73;2.77;;;1.80;99.90;;;1.57;66.30;100277.09;5015047;28;20207;-71
2023/02/20 01:43:53;;;;;;;7.23;2.90;;;1.80;99.90;;;1.59;66.34;100285.63;5003762;28;20653;-68
2023/02/20 01:46:46;;;;;;;4.90;2.73;;;1.80;99.90;;;1.61;66.54;100294.13;5004218;28;20214;-69
2023/02/20 01:49:22;;;;;;;5.93;2.43;;;1.80;99.90;;;1.62;66.20;100294.97;5009712;28;20200;-69
2023/02/20 01:51:59;;;;;;;4.47;2.00;;;1.90;99.90;;;1.61;66.21;100283.97;5024261;28;20241;-72
2023/02/20 01:54:29;;;;;;;5.23;1.93;;;1.90;99.90;;;1.63;66.55;100284.88;5013467;28;20264;-69
2023/02/20 01:57:02;;;;;;;7.20;2.80;;;1.90;99.90;;;1.67;66.65;100273.13;5010220;28;20215;-69
2023/02/20 01:59:35;;;;;;;6.93;2.50;;;1.90;99.90;;;1.69;67.08;100271.47;5013491;28;20219;-67
2023/02/20 02:02:05;;;;;;;5.37;2.50;;;1.90;99.90;;;1.68;66.24;100269.75;5014792;28;20261;-62
2023/02/20 02:04:36;;;;;;;6.30;2.63;;;1.90;99.90;;;1.68;66.71;100268.09;5020679;28;20268;-64
2023/02/20 02:07:08;;;;;;;5.93;2.20;;;1.90;99.90;;;1.67;66.96;100273.13;5013560;28;20204;-64
2023/02/20 02:09:44;;;;;;;5.60;2.27;;;1.90;99.90;;;1.66;66.95;100271.41;5020560;28;20195;-63
2023/02/20 02:12:14;;;;;;;7.43;2.60;;;1.90;99.90;;;1.65;66.67;100277.28;5013733;28;20246;-64
2023/02/20 02:14:42;;;;;;;2.80;1.80;;;1.90;99.90;;;1.67;67.00;100262.97;5021350;28;20211;-64
2023/02/20 02:17:45;;;;;;;3.60;2.33;;;1.90;99.90;;;1.68;66.49;100263.00;5018874;28;20207;-64
2023/02/20 02:21:09;;;;;;;4.60;2.30;;;2.00;99.90;;;1.69;67.05;100254.59;5008264;28;20298;-63
2023/02/20 02:24:50;;;;;;;3.80;2.00;;;2.00;99.90;;;1.73;66.86;100267.34;5014325;28;20207;-65
2023/02/20 02:28:23;;;;;;;3.53;1.87;;;2.00;99.90;;;1.74;66.78;100269.94;4991551;28;20230;-63
2023/02/20 02:31:37;;;;;;;4.73;2.30;;;2.00;99.90;;;1.77;66.02;100271.69;4996120;28;20199;-63
2023/02/20 02:34:37;;;;;;;4.80;1.93;;;2.00;99.90;;;1.77;65.97;100270.03;5009889;28;20199;-64
2023/02/20 02:37:18;;;;;;;5.60;2.07;;;2.00;99.90;;;1.78;66.83;100273.44;5008428;28;20200;-62
2023/02/20 02:39:55;;;;;;;3.50;1.80;;;2.00;99.90;;;1.78;66.70;100268.34;5015226;28;20664;-63
2023/02/20 02:42:36;;;;;;;3.93;1.57;;;2.00;99.90;;;1.79;66.73;100263.31;5010276;28;20198;-65
2023/02/20 02:45:17;;;;;;;8.13;1.80;;;2.00;99.90;;;1.79;66.25;100254.81;5012990;28;20607;-65
2023/02/20 02:47:51;;;;;;;5.43;1.67;;;2.10;99.90;;;1.78;66.38;100256.50;5021201;28;20242;-63
2023/02/20 02:50:26;;;;;;;3.20;1.57;;;2.00;99.90;;;1.79;66.55;100257.38;5017396;28;20215;-63
2023/02/20 02:52:58;;;;;;;5.17;1.70;;;2.00;99.90;;;1.78;66.53;100263.28;5019074;28;20233;-64
2023/02/20 02:55:30;;;;;;;5.50;1.97;;;2.00;99.90;;;1.77;66.33;100272.56;5018508;28;20203;-62
2023/02/20 02:57:58;;;;;;;3.37;1.90;;;2.00;99.90;;;1.77;67.11;100269.16;5018094;28;20199;-62
2023/02/20 03:00:33;;;;;;;4.23;2.27;;;2.00;99.90;;;1.77;66.71;100270.03;5017086;28;20231;-64
2023/02/20 03:03:15;;;;;;;4.10;1.80;;;2.10;99.90;;;1.77;66.37;100266.59;5017494;28;20203;-63
2023/02/20 03:05:49;;;;;;;6.60;2.40;;;2.00;99.90;;;1.77;66.97;100254.78;5012409;28;20199;-63
2023/02/20 03:08:30;;;;;;;3.30;1.60;;;2.00;99.90;;;1.77;66.65;100257.34;5015148;28;20203;-64
2023/02/20 03:11:06;;;;;;;3.93;2.07;;;2.00;99.90;;;1.77;66.62;100261.53;5016123;28;20207;-62
2023/02/20 03:16:32;;;;;;;2.70;1.87;;;2.00;99.90;;;1.76;67.00;100257.28;5018880;28;20652;-62
2023/02/20 03:19:07;;;;;;;4.80;2.23;;;2.00;99.90;;;1.77;66.97;100262.41;5020191;28;20214;-62
2023/02/20 03:21:38;;;;;;;6.03;2.30;;;2.00;99.90;;;1.76;66.69;100255.59;5021087;28;20605;-63
2023/02/20 03:24:12;;;;;;;8.43;2.67;;;2.00;99.90;;;1.74;67.04;100256.38;5021056;28;20203;-63
2023/02/20 03:26:43;;;;;;;6.50;2.70;;;2.00;99.90;;;1.74;67.01;100249.63;5018345;28;20202;-62
2023/02/20 03:29:18;;;;;;;6.00;2.50;;;2.00;99.90;;;1.75;67.08;100253.03;5023055;28;20227;-62
2023/02/20 03:43:23;;;;;;;4.47;2.70;;;1.90;99.90;;;1.66;66.70;100251.09;5020095;28;20208;-65
2023/02/20 03:45:57;;;;;;;7.27;2.20;;;1.90;99.90;;;1.63;66.87;100249.34;5020203;28;20199;-64
2023/02/20 03:48:34;;;;;;;5.40;2.40;;;1.90;99.90;;;1.62;67.42;100246.72;5024856;28;20301;-64
2023/02/20 03:51:03;;;;;;;10.40;3.20;;;1.90;99.90;;;1.62;67.22;100254.34;5025820;28;20222;-63
2023/02/20 03:53:32;;;;;;;4.37;2.47;;;1.80;99.90;;;1.61;67.01;100248.41;5010441;28;20216;-64
2023/02/20 03:56:08;;;;;;;3.97;2.43;;;1.80;99.90;;;1.62;67.06;100244.19;5021531;28;20679;-64
2023/02/20 03:58:42;;;;;;;4.27;2.53;;;1.80;99.90;;;1.60;67.18;100240.75;5029217;28;20279;-65
2023/02/20 04:01:14;;;;;;;4.30;2.57;;;1.80;99.90;;;1.60;67.59;100240.75;5016177;28;20211;-62
2023/02/20 04:03:44;;;;;;;6.80;2.87;;;1.80;99.90;;;1.59;67.13;100255.16;5011466;28;20299;-63
2023/02/20 04:06:15;;;;;;;5.73;2.77;;;1.80;99.90;;;1.58;67.21;100242.38;5012730;28;20207;-63
2023/02/20 04:08:52;;;;;;;5.13;2.50;;;1.80;99.90;;;1.57;67.48;100245.75;5020638;28;20204;-69
2023/02/20 04:11:25;;;;;;;3.47;2.30;;;1.80;99.90;;;1.53;67.78;100244.81;5012411;28;20814;-70
2023/02/20 04:13:56;;;;;;;8.23;2.20;;;1.80;99.90;;;1.52;67.44;100243.09;5012380;28;20203;-71
2023/02/20 04:16:25;;;;;;;6.77;2.33;;;1.70;99.90;;;1.52;68.34;100242.25;5014690;28;20195;-69
2023/02/20 04:18:54;;;;;;;4.40;2.00;;;1.80;99.90;;;1.53;67.73;100237.19;5014640;28;20218;-71
2023/02/20 04:21:32;;;;;;;6.43;2.40;;;1.80;99.90;;;1.54;67.94;100230.44;5012430;28;20235;-69
2023/02/20 04:24:06;;;;;;;3.80;1.90;;;1.70;99.90;;;1.52;67.63;100237.16;5009061;28;20207;-68
2023/02/20 04:26:36;;;;;;;4.80;2.27;;;1.70;99.90;;;1.50;68.26;100229.47;5014657;28;20265;-70
2023/02/20 04:29:06;;;;;;;5.23;2.20;;;1.70;99.90;;;1.49;67.87;100232.84;5014330;28;20640;-69
2023/02/20 04:31:35;;;;;;;7.43;3.00;;;1.70;99.90;;;1.49;67.55;100235.38;5015668;28;20269;-69
2023/02/20 04:34:03;;;;;;;4.33;2.30;;;1.70;99.90;;;1.47;67.87;100226.84;5008738;28;20295;-69
2023/02/20 04:36:32;;;;;;;6.17;2.33;;;1.70;99.90;;;1.48;67.85;100220.13;5004093;28;20299;-69
2023/02/20 04:39:00;;;;;;;4.23;1.90;;;1.70;99.90;;;1.48;68.07;100225.19;5004919;28;20219;-67
2023/02/20 04:41:29;;;;;;;3.77;2.13;;;1.70;99.90;;;1.45;68.49;100206.50;5014806;28;20314;-68
2023/02/20 04:46:41;;;;;;;5.50;1.80;;;1.70;99.90;;;1.48;68.19;100207.44;5007859;28;20293;-69
2023/02/20 04:49:09;;;;;;;3.03;2.00;;;1.70;99.90;;;1.50;68.50;100198.16;5005409;28;20671;-70
2023/02/20 04:51:38;;;;;;;2.43;1.70;;;1.70;99.90;;;1.50;68.33;100185.47;5014320;28;20261;-69
2023/02/20 04:54:06;;;;;;;4.17;2.20;;;1.70;99.90;;;1.53;69.08;100195.72;5023158;28;20250;-69
2023/02/20 04:56:35;;;;;;;5.57;2.10;;;1.70;99.90;;;1.55;68.48;100196.63;5014155;28;20203;-70
2023/02/20 04:59:05;;;;;;;5.57;2.30;;;1.80;99.90;;;1.56;68.67;100193.25;5004521;28;20203;-70
2023/02/20 05:01:33;;;;;;;3.03;1.70;;;1.80;99.90;;;1.60;68.68;100195.91;5008490;28;20331;-70
2023/02/20 05:04:02;;;;;;;6.23;2.30;;;1.80;99.90;;;1.62;68.88;100193.41;5006898;28;20207;-68
2023/02/20 05:06:30;;;;;;;3.97;1.67;;;1.80;99.90;;;1.63;68.53;100190.06;4999757;28;20266;-69
2023/02/20 05:08:58;;;;;;;4.17;2.10;;;1.80;99.90;;;1.62;68.59;100175.63;5012700;28;20219;-70
2023/02/20 05:11:27;;;;;;;3.97;1.80;;;1.90;99.90;;;1.67;68.76;100186.78;5014558;28;20211;-69
2023/02/20 05:13:56;;;;;;;3.60;2.10;;;1.90;99.90;;;1.68;68.87;100175.78;5014409;28;20210;-70
2023/02/20 05:16:26;;;;;;;6.43;1.83;;;2.00;99.90;;;1.71;69.47;100167.41;5009051;28;20207;-68
2023/02/20 05:18:54;;;;;;;5.47;2.10;;;1.90;99.90;;;1.75;69.42;100164.97;5012964;28;20230;-69
2023/02/20 05:24:08;;;;;;;4.73;2.43;;;2.00;99.90;;;1.76;69.57;100153.97;5009096;28;20242;-69
2023/02/20 05:26:37;;;;;;;4.77;2.17;;;2.00;99.90;;;1.79;68.96;100153.22;5007478;28;20211;-68
2023/02/20 05:29:08;;;;;;;5.33;2.30;;;2.00;99.90;;;1.83;69.07;100162.63;5012848;28;20251;-65
2023/02/20 05:31:38;;;;;;;7.80;2.03;;;2.00;99.90;;;1.85;69.62;100159.31;5010388;28;20270;-68
2023/02/20 05:34:07;;;;;;;5.70;2.07;;;2.10;99.90;;;1.85;69.13;100169.47;5007566;28;20293;-70
2023/02/20 05:36:35;;;;;;;6.20;2.27;;;2.10;99.90;;;1.87;69.75;100167.81;5010133;28;20261;-70
2023/02/20 05:39:04;;;;;;;6.03;3.50;;;2.10;99.90;;;1.90;69.58;100165.38;5002584;28;20565;-70
2023/02/20 05:41:33;;;;;;;10.07;2.90;;;2.10;99.90;;;1.93;69.19;100169.66;5009645;28;20636;-69
2023/02/20 05:44:01;;;;;;;5.23;1.90;;;2.20;99.90;;;1.96;69.58;100166.34;5010116;28;20582;-69
2023/02/20 05:46:30;;;;;;;5.43;2.37;;;2.20;99.90;;;1.96;68.57;100166.34;5006253;28;20238;-66
2023/02/20 05:48:59;;;;;;;6.17;2.30;;;2.20;99.90;;;1.97;69.44;100153.69;5005023;28;20200;-71
2023/02/20 05:51:30;;;;;;;6.33;1.80;;;2.20;99.90;;;1.97;69.22;100135.88;5012130;28;20636;-70
2023/02/20 05:54:01;;;;;;;4.07;1.80;;;2.20;99.90;;;1.97;68.69;100135.03;5012079;28;20210;-72
2023/02/20 05:56:31;;;;;;;5.40;2.40;;;2.20;99.90;;;1.99;69.35;100149.50;5010655;28;20651;-72
2023/02/20 05:59:00;;;;;;;5.23;2.13;;;2.20;99.90;;;2.00;68.63;100145.28;4998931;28;20542;-70
2023/02/20 06:01:31;;;;;;;5.77;2.20;;;2.30;99.90;;;1.99;68.79;100139.34;5008660;28;20242;-72
2023/02/20 06:04:01;;;;;;;4.63;2.20;;;2.30;99.90;;;2.01;68.54;100147.84;5011452;28;20210;-70
2023/02/20 06:06:34;;;;;;;5.87;2.30;;;2.20;99.90;;;2.03;69.09;100137.72;5011181;28;20203;-71
2023/02/20 06:09:03;;;;;;;7.97;2.27;;;2.20;99.90;;;2.02;68.35;100134.31;5010268;28;20660;-71
2023/02/20 06:11:32;;;;;;;7.40;2.53;;;2.30;99.90;;;2.05;68.41;100146.22;5006345;28;20307;-70
2023/02/20 06:14:00;;;;;;;5.07;2.10;;;2.30;99.90;;;2.04;68.36;100132.69;5011812;28;20229;-73
2023/02/20 06:16:30;;;;;;;2.50;1.80;;;2.30;99.90;;;2.06;68.90;100131.03;5002638;28;20215;-70
2023/02/20 06:19:01;;;;;;;5.13;2.30;;;2.30;99.90;;;2.10;68.20;100126.88;5003669;28;20756;-70
2023/02/20 06:21:29;;;;;;;5.43;1.77;;;2.30;99.90;;;2.14;68.64;100121.91;5005279;28;20624;-69
2023/02/20 06:23:58;;;;;;;4.17;1.90;;;2.40;99.90;;;2.15;68.03;100125.31;4999801;28;20211;-69
2023/02/20 06:26:26;;;;;;;4.90;1.93;;;2.40;99.90;;;2.16;68.06;100112.63;5005877;28;20331;-69
2023/02/20 06:28:56;;;;;;;4.40;2.20;;;2.40;99.90;;;2.21;68.16;100116.94;4996767;28;20718;-69
2023/02/20 06:31:27;;;;;;;3.80;1.97;;;2.40;99.90;;;2.22;68.58;100106.84;5001322;28;20254;-72
2023/02/20 06:33:56;;;;;;;7.87;2.00;;;2.40;99.90;;;2.25;68.65;100112.00;5003285;28;20212;-69
2023/02/20 06:36:29;;;;;;;7.93;2.63;;;2.50;99.90;;;2.30;67.80;100110.41;5010758;28;20211;-72
2023/02/20 06:38:58;;;;;;;4.77;2.20;;;2.50;99.90;;;2.33;67.81;100109.63;5012499;28;20203;-69
2023/02/20 06:41:27;;;;;;;5.00;2.40;;;2.60;99.90;;;2.37;67.90;100107.19;5011923;28;20265;-71
2023/02/20 06:43:56;;;;;;;3.10;2.03;;;2.60;99.90;;;2.39;67.85;100102.13;5009751;28;20238;-71
2023/02/20 06:46:25;;;;;;;5.63;2.30;;;2.70;99.90;;;2.37;67.79;100102.09;4995079;28;20313;-65
2023/02/20 06:48:55;;;;;;;6.33;2.70;;;2.60;99.90;;;2.40;68.82;100106.41;5007172;28;20210;-73
2023/02/20 06:51:29;;;;;;;4.80;2.27;;;2.70;99.90;;;2.44;68.75;100102.25;5010465;28;20552;-68
2023/02/20 06:53:58;;;;;;;4.70;2.00;;;2.70;99.90;;;2.46;68.48;100092.94;4995960;28;20227;-71
2023/02/20 06:56:31;;;;;;;3.50;2.13;;;2.70;99.90;;;2.52;68.38;100085.47;5001885;28;20200;-70
2023/02/20 06:59:00;;;;;;;7.20;2.50;;;2.80;99.90;;;2.60;68.28;100094.97;5015278;28;20195;-68
2023/02/20 07:01:31;;;;;;;4.33;2.10;;;2.80;99.90;;;2.62;68.00;100080.59;5005223;28;20642;-69
2023/02/20 07:04:01;;;;;;;6.87;2.93;;;2.90;99.90;;;2.67;68.07;100083.22;5001220;28;20195;-69
2023/02/20 07:06:31;;;;;;;5.87;2.70;;;3.00;99.90;;;2.75;68.30;100089.34;5016091;28;20235;-68
2023/02/20 07:08:59;;;;;;;5.27;2.60;;;3.00;99.90;;;2.79;67.43;100088.56;5011934;28;20617;-70
2023/02/20 07:11:28;;;;;;;4.93;2.50;;;3.10;99.90;;;2.89;67.99;100093.03;5006604;28;20301;-70
2023/02/20 07:13:57;;;;;;;9.10;2.83;;;3.20;99.90;;;2.96;67.77;100081.28;5016074;28;20671;-69
2023/02/20 07:16:25;;;;;;;6.30;3.07;;;3.20;99.90;;;3.04;67.40;100073.78;5015800;28;20211;-70
2023/02/20 07:18:54;;;;;;;4.37;2.17;;;3.30;99.90;;;3.10;67.65;100066.28;5016124;28;20207;-71
2023/02/20 07:21:23;;;;;;;8.57;2.50;;;3.40;99.90;;;3.17;66.66;100068.13;5013708;28;20262;-69
2023/02/20 07:23:53;;;;;;;7.83;2.97;;;3.40;99.90;;;3.22;67.32;100069.03;5011049;28;20207;-69
2023/02/20 07:26:24;;;;;;;7.77;2.60;;;3.40;99.90;;;3.23;67.31;100070.75;5009311;28;20230;-70
2023/02/20 07:28:53;;;;;;;8.90;2.40;;;3.50;99.90;;;3.24;66.81;100064.84;5002419;28;20748;-69
2023/02/20 07:31:22;;;;;;;9.23;3.07;;;3.50;99.90;;;3.29;67.01;100082.75;5010919;28;20302;-70
2023/02/20 07:33:50;;;;;;;5.27;2.60;;;3.50;99.90;;;3.30;66.45;100064.94;5004883;28;20305;-70
2023/02/20 07:36:19;;;;;;;7.50;2.40;;;3.60;99.90;;;3.35;67.32;100073.53;5016395;28;20203;-71
2023/02/20 07:38:56;;;;;;;3.97;2.30;;;3.60;99.90;;;3.42;66.87;100073.63;5011168;28;20212;-70
2023/02/20 07:41:25;;;;;;;11.27;2.70;;;3.70;99.90;;;3.50;67.44;100066.97;5010519;28;20226;-71
2023/02/20 07:43:53;;;;;;;4.40;2.50;;;3.80;99.90;;;3.55;67.41;100076.44;5006262;28;20261;-70
2023/02/20 07:46:22;;;;;;;4.87;2.63;;;3.90;99.90;;;3.62;66.72;100072.31;5013567;28;20265;-69
2023/02/20 07:48:52;;;;;;;4.93;2.57;;;3.80;99.90;;;3.64;65.86;100075.72;5010253;28;20273;-71
2023/02/20 07:51:20;;;;;;;4.97;2.20;;;3.80;99.90;;;3.64;65.94;100065.53;5015105;28;20208;-70
2023/02/20 07:53:50;;;;;;;5.87;2.47;;;3.80;99.90;;;3.68;66.25;100048.59;5013480;28;20293;-69
2023/02/20 07:56:21;;;;;;;5.87;2.83;;;3.90;99.90;;;3.73;66.39;100039.34;5015276;28;20207;-69
2023/02/20 07:58:50;;;;;;;5.97;2.73;;;4.00;99.90;;;3.81;66.54;100027.59;5013312;28;20659;-70
2023/02/20 08:01:19;;;;;;;10.03;3.00;;;4.10;99.90;;;3.91;66.72;100024.34;5012581;28;20207;-69
2023/02/20 08:03:48;;;;;;;7.57;3.07;;;4.10;99.90;;;3.93;65.31;100021.81;5010103;28;20271;-70
2023/02/20 08:06:18;;;;;;;11.37;3.07;;;4.10;99.90;;;3.95;65.68;100013.38;5011601;28;20297;-69
2023/02/20 08:08:50;;;;;;;5.70;2.63;;;4.20;99.90;;;4.00;65.69;99993.03;5007280;28;20584;-69
2023/02/20 08:11:21;;;;;;;4.23;2.73;;;4.20;99.90;;;4.05;65.71;99978.63;5012752;28;20207;-70
2023/02/20 08:13:50;;;;;;;5.83;2.80;;;4.30;99.90;;;4.14;66.08;99986.44;5013645;28;20242;-70
2023/02/20 08:16:18;;;;;;;5.27;2.80;;;4.40;99.90;;;4.18;65.15;99983.09;5015461;28;21018;-63
2023/02/20 08:18:47;;;;;;;8.30;3.03;;;4.40;99.90;;;4.17;65.50;99978.81;5014920;28;20730;-65
2023/02/20 08:21:16;;;;;;;5.47;2.47;;;4.40;99.90;;;4.17;65.78;99975.41;5014468;28;20207;-64
2023/02/20 08:23:44;;;;;;;7.83;2.60;;;4.40;99.90;;;4.21;65.71;99978.03;5006856;28;20275;-64
2023/02/20 08:26:13;;;;;;;10.10;3.10;;;4.50;99.90;;;4.22;66.09;99972.09;5003430;28;20644;-64
2023/02/20 08:28:44;;;;;;;8.37;2.97;;;4.50;99.90;;;4.28;65.64;99969.63;5006869;28;20305;-66
2023/02/20 08:31:12;;;;;;;6.47;2.63;;;4.50;99.90;;;4.29;66.36;99960.28;5014607;28;20625;-65
2023/02/20 08:33:58;;;;;;;6.77;2.60;;;4.60;99.90;;;4.29;65.81;99940.72;5015274;28;20203;-68
2023/02/20 08:36:26;;;;;;;6.53;2.87;;;4.60;99.90;;;4.28;66.02;99945.81;5015211;28;20228;-65
2023/02/20 08:38:56;;;;;;;5.10;2.80;;;4.50;99.90;;;4.26;66.40;99933.03;5015068;28;20253;-64
2023/02/20 08:41:24;;;;;;;5.70;2.53;;;4.50;99.90;;;4.25;67.00;99935.56;5012334;28;20234;-64
2023/02/20 08:43:54;;;;;;;7.73;2.93;;;4.50;99.90;;;4.21;66.61;99938.91;5007356;28;20586;-64
2023/02/20 08:46:22;;;;;;;6.77;3.40;;;4.50;99.90;;;4.15;66.85;99932.03;5014598;28;20587;-64
2023/02/20 08:48:51;;;;;;;5.80;3.00;;;4.40;99.90;;;4.07;67.27;99937.03;5009565;28;20261;-62
2023/02/20 08:51:21;;;;;;;3.57;2.97;;;4.30;99.90;;;4.00;67.97;99934.41;5013725;28;20219;-65
2023/02/20 08:53:49;;;;;;;6.80;2.77;;;4.30;99.90;;;3.96;69.69;99932.66;5000233;28;20211;-64
2023/02/20 08:56:19;;;;;;;3.53;2.30;;;4.30;99.90;;;3.91;69.68;99937.69;5014340;28;20253;-63
2023/02/20 08:58:47;;;;;;;4.87;2.50;;;4.20;99.90;;;3.83;70.29;99924.84;5014154;28;20417;-66
2023/02/20 09:01:17;;;;;;;6.57;3.20;;;4.10;99.90;;;3.78;70.76;99906.06;5006259;28;20652;-65
2023/02/20 09:03:48;;;;;;;6.03;3.13;;;4.10;99.90;;;3.77;71.74;99909.47;5013591;28;20305;-64
2023/02/20 09:06:16;;;;;;;7.83;3.10;;;4.00;99.90;;;3.76;71.38;99901.81;5013851;28;20211;-65
2023/02/20 09:08:45;;;;;;;6.23;3.20;;;4.00;99.90;;;3.70;72.30;99884.72;5015834;28;20219;-66
2023/02/20 09:11:14;;;;;;;6.37;2.77;;;3.90;99.90;;;3.66;72.67;99875.34;5020251;28;20570;-65
2023/02/20 09:13:43;;;;;;;6.27;3.53;;;3.90;99.90;;;3.59;72.95;99865.91;5019987;28;20203;-65
2023/02/20 09:16:12;;;;;;;6.30;3.70;;;3.80;99.90;;;3.49;73.28;99862.34;5019695;28;20260;-65
2023/02/20 09:18:43;;;;;;;4.80;3.17;;;3.70;99.90;;;3.37;74.25;99857.94;5018517;28;20207;-64
2023/02/20 09:21:14;;;;;;;7.30;3.87;;;3.60;99.90;;;3.29;74.97;99849.34;5019023;28;20273;-64
2023/02/20 09:23:43;;;;;;;8.27;3.77;;;3.60;99.90;;;3.21;75.35;99837.34;5009482;28;20262;-65
2023/02/20 09:26:11;;;;;;;6.93;3.60;;;3.50;99.90;;;3.14;75.37;99826.22;5017035;28;20207;-65
2023/02/20 09:28:40;;;;;;;7.17;3.30;;;3.40;99.90;;;3.11;75.31;99828.72;5017673;28;20234;-65
2023/02/20 09:31:09;;;;;;;5.43;3.80;;;3.30;99.90;;;3.05;75.92;99819.28;5015915;28;20226;-63
2023/02/20 09:33:37;;;;;;;6.40;3.67;;;3.30;99.90;;;3.01;76.75;99811.59;5016935;28;20242;-65
2023/02/20 09:36:08;;;;;;;9.73;4.40;;;3.20;99.90;;;2.97;76.73;99799.66;5016649;28;20319;-65
2023/02/20 09:38:36;;;;;;;6.67;3.83;;;3.30;99.90;;;2.97;77.54;99779.28;5012401;28;20246;-66
2023/02/20 09:41:10;;;;;;;6.97;4.00;;;3.30;99.90;;;2.96;77.65;99770.81;5018100;28;20211;-64
2023/02/20 09:43:50;;;;;;;6.27;4.13;;;3.30;99.90;;;2.98;78.56;99750.44;5016285;28;20259;-64
2023/02/20 09:46:22;;;;;;;7.63;4.40;;;3.30;99.90;;;2.98;78.52;99756.38;5012429;28;20219;-68
2023/02/20 09:49:09;;;;;;;6.60;4.57;;;3.30;99.90;;;2.97;78.39;99754.69;5016710;28;20715;-63
2023/02/20 09:51:44;;;;;;;9.00;4.93;;;3.20;99.90;;;2.94;78.73;99738.53;5015538;28;20672;-63
2023/02/20 09:54:17;;;;;;;9.63;5.73;;;3.20;99.90;;;2.93;78.74;99727.50;5019718;28;20209;-64
2023/02/20 09:56:51;;;;;;;11.83;5.33;;;3.20;99.90;;;2.92;78.68;99704.56;5021807;28;20262;-62
2023/02/20 09:59:24;;;;;;;7.37;4.73;;;3.20;99.90;;;2.95;78.74;99709.72;5007983;28;20198;-65
2023/02/20 10:01:56;;;;;;;8.17;5.10;;;3.20;99.90;;;2.95;78.78;99700.38;5018000;28;20211;-63
2023/02/20 10:04:30;;;;;;;6.63;4.50;;;3.20;99.90;;;2.93;79.23;99693.56;5030273;28;20215;-63
2023/02/20 10:07:13;;;;;;;12.00;5.53;;;3.30;99.90;;;2.92;78.74;99689.31;5018441;28;20210;-65
2023/02/20 10:09:42;;;;;;;14.73;6.67;;;3.20;99.90;;;2.88;79.28;99663.81;5007208;28;20608;-63
2023/02/20 10:12:24;;;;;;;7.30;4.83;;;3.20;99.90;;;2.86;79.47;99670.56;5011219;28;20623;-64
2023/02/20 10:15:19;;;;;;;6.70;5.07;;;3.20;99.90;;;2.87;79.30;99667.22;5008836;28;20241;-63
2023/02/20 10:17:59;;;;;;;11.73;6.83;;;3.20;99.90;;;2.89;80.24;99665.53;4994613;28;20244;-69
2023/02/20 10:20:38;;;;;;;6.57;4.60;;;3.30;99.90;;;2.89;80.49;99655.34;5011134;28;20203;-69
2023/02/20 10:23:20;;;;;;;6.80;5.50;;;3.20;99.90;;;2.90;80.58;99651.09;5012066;28;20565;-69
2023/02/20 10:25:53;;;;;;;10.40;5.57;;;3.20;99.90;;;2.93;79.91;99651.16;5009719;28;20204;-69
2023/02/20 10:28:22;;;;;;;9.40;5.33;;;3.20;99.90;;;2.93;80.19;99635.88;5004357;28;20637;-69
2023/02/20 10:31:00;;;;;;;7.10;4.63;;;3.30;99.90;;;2.97;80.22;99647.81;5003665;28;20207;-69
2023/02/20 10:33:35;;;;;;;6.37;5.30;;;3.20;99.90;;;2.99;80.34;99632.56;4999596;28;20570;-69
2023/02/20 10:36:13;;;;;;;6.00;4.30;;;3.30;99.90;;;3.00;80.44;99634.28;5010170;28;20199;-69
2023/02/20 10:38:50;;;;;;;5.83;4.60;;;3.30;99.90;;;3.00;80.21;99607.13;4998376;28;20566;-70
2023/02/20 10:41:26;;;;;;;6.60;4.47;;;3.30;99.90;;;3.01;80.52;99608.81;5012094;28;20207;-68
2023/02/20 10:44:02;;;;;;;8.23;4.90;;;3.30;99.90;;;3.03;80.74;99601.22;5012158;28;20285;-70
2023/02/20 10:46:39;;;;;;;10.67;4.80;;;3.30;99.90;;;3.03;80.33;99611.41;5012038;28;20242;-70
2023/02/20 10:49:24;;;;;;;5.77;4.30;;;3.30;99.90;;;3.02;80.98;99594.41;5008743;28;20200;-70
2023/02/20 10:51:59;;;;;;;5.87;4.60;;;3.30;99.90;;;3.02;81.09;99589.31;5004089;28;20679;-68
2023/02/20 10:54:37;;;;;;;5.10;4.60;;;3.30;99.90;;;3.02;81.22;99579.13;5009153;28;20281;-68
2023/02/20 10:57:12;;;;;;;8.43;5.00;;;3.30;99.90;;;3.00;81.04;99570.66;5020354;28;20199;-66
2023/02/20 10:59:50;;;;;;;8.83;4.77;;;3.30;99.90;;;3.04;80.66;99577.47;5016240;28;20210;-64
2023/02/20 11:02:25;;;;;;;5.63;4.30;;;3.30;99.90;;;3.02;81.00;99556.25;5011609;28;20199;-66
2023/02/20 11:05:01;;;;;;;6.93;4.50;;;3.30;99.90;;;2.98;81.10;99544.31;5010874;28;20265;-64
2023/02/20 11:07:29;;;;;;;7.40;4.40;;;3.30;99.90;;;2.97;80.93;99553.66;5006304;28;20593;-63
2023/02/20 11:09:59;;;;;;;5.63;4.33;;;3.30;99.90;;;2.98;80.60;99541.78;5014499;28;20623;-64